logo
Search for airport 
image banner adimage banner adimage banner ad
image banner ad

EDCT - Taucha

Located in Taucha, Germany

ICAO - EDCT, IATA -

Data provided by Airmate  

General information

Coordinates: N51°23'41" E12°32'13"
Elevation is 492 feet MSL.
Magnetic variation is 4.0000° East
Rated:
View ratings:
[VIEW]
View others Airports in Saxony

Operational data

Special qualification required
Current time UTC:
Current local time:
Weather at : EDDP - Leipzig/Halle ( 21 km )
METAR: EDDP 220250Z AUTO 22008KT 190V250 9999 OVC025 18/15 Q1009 TEMPO SHRA SCT030CB
TAF: TAF EDDP 212300Z 2200/2224 21008KT 9999 FEW035 PROB30 TEMPO 2202/2207 SHRA BKN014 BKN030CB BECMG 2206/2209 26013KT PROB30 TEMPO 2208/2215 27015G25KT BECMG 2216/2219 29006KT
View NOTAMs / SUP AIP / TFR affecting this airport [VIEW]
Communications frequencies: [VIEW]

Runways:

RWY identifierQFULength (ft)Width (ft)SurfaceLDA (ft)
0770°196998GRASS1969
25250°196998GRASS1969

Airport contact information

Address: Taucha Germany

Satellite view of EDCT